sensor_id;sensor_type;location;lat;lon;timestamp;P1;durP1;ratioP1;P2;durP2;ratioP2
31730;SDS011;18310;55.586;12.286;2023-05-07T00:01:48;8.15;;;1.55;;
31730;SDS011;18310;55.586;12.286;2023-05-07T00:04:51;6.85;;;2.15;;
31730;SDS011;18310;55.586;12.286;2023-05-07T00:07:55;4.28;;;1.20;;
31730;SDS011;18310;55.586;12.286;2023-05-07T00:11:20;4.50;;;1.27;;
31730;SDS011;18310;55.586;12.286;2023-05-07T00:14:23;3.03;;;1.48;;
31730;SDS011;18310;55.586;12.286;2023-05-07T00:17:27;5.57;;;1.90;;
31730;SDS011;18310;55.586;12.286;2023-05-07T00:20:30;3.17;;;1.30;;
31730;SDS011;18310;55.586;12.286;2023-05-07T00:23:36;4.93;;;1.60;;
31730;SDS011;18310;55.586;12.286;2023-05-07T00:26:41;3.72;;;1.27;;
31730;SDS011;18310;55.586;12.286;2023-05-07T00:29:44;6.20;;;1.33;;
31730;SDS011;18310;55.586;12.286;2023-05-07T00:32:47;3.17;;;1.33;;
31730;SDS011;18310;55.586;12.286;2023-05-07T00:35:50;3.60;;;1.50;;
31730;SDS011;18310;55.586;12.286;2023-05-07T00:38:53;6.97;;;1.40;;
31730;SDS011;18310;55.586;12.286;2023-05-07T00:41:58;6.37;;;1.67;;
31730;SDS011;18310;55.586;12.286;2023-05-07T00:45:02;9.27;;;1.80;;
31730;SDS011;18310;55.586;12.286;2023-05-07T00:48:05;4.80;;;1.50;;
31730;SDS011;18310;55.586;12.286;2023-05-07T00:51:09;5.37;;;1.57;;
31730;SDS011;18310;55.586;12.286;2023-05-07T00:57:17;3.05;;;1.20;;
31730;SDS011;18310;55.586;12.286;2023-05-07T01:00:22;5.60;;;1.60;;
31730;SDS011;18310;55.586;12.286;2023-05-07T01:03:26;5.32;;;1.20;;
31730;SDS011;18310;55.586;12.286;2023-05-07T01:06:30;3.55;;;1.50;;
31730;SDS011;18310;55.586;12.286;2023-05-07T01:09:36;6.47;;;1.33;;
31730;SDS011;18310;55.586;12.286;2023-05-07T01:12:41;5.10;;;1.27;;
31730;SDS011;18310;55.586;12.286;2023-05-07T01:15:45;3.53;;;1.35;;
31730;SDS011;18310;55.586;12.286;2023-05-07T01:18:48;4.40;;;1.15;;
31730;SDS011;18310;55.586;12.286;2023-05-07T01:21:51;4.23;;;1.60;;
31730;SDS011;18310;55.586;12.286;2023-05-07T01:25:06;2.85;;;1.30;;
31730;SDS011;18310;55.586;12.286;2023-05-07T01:28:10;3.50;;;1.20;;
31730;SDS011;18310;55.586;12.286;2023-05-07T01:31:13;4.10;;;1.30;;
31730;SDS011;18310;55.586;12.286;2023-05-07T01:34:16;4.00;;;1.27;;
31730;SDS011;18310;55.586;12.286;2023-05-07T01:37:20;3.85;;;1.27;;
31730;SDS011;18310;55.586;12.286;2023-05-07T01:43:30;6.45;;;1.80;;
31730;SDS011;18310;55.586;12.286;2023-05-07T01:46:34;5.55;;;1.80;;
31730;SDS011;18310;55.586;12.286;2023-05-07T01:49:37;3.03;;;0.90;;
31730;SDS011;18310;55.586;12.286;2023-05-07T01:52:40;4.72;;;1.00;;
31730;SDS011;18310;55.586;12.286;2023-05-07T01:55:45;3.97;;;1.70;;
31730;SDS011;18310;55.586;12.286;2023-05-07T01:58:48;5.00;;;1.42;;
31730;SDS011;18310;55.586;12.286;2023-05-07T02:01:52;6.75;;;1.50;;
31730;SDS011;18310;55.586;12.286;2023-05-07T02:04:56;4.67;;;1.53;;
31730;SDS011;18310;55.586;12.286;2023-05-07T02:07:59;10.60;;;1.70;;
31730;SDS011;18310;55.586;12.286;2023-05-07T02:11:05;2.55;;;1.00;;
31730;SDS011;18310;55.586;12.286;2023-05-07T02:14:08;3.70;;;1.55;;
31730;SDS011;18310;55.586;12.286;2023-05-07T02:17:11;6.17;;;1.50;;
31730;SDS011;18310;55.586;12.286;2023-05-07T02:20:14;5.22;;;1.40;;
31730;SDS011;18310;55.586;12.286;2023-05-07T02:23:17;3.92;;;1.20;;
31730;SDS011;18310;55.586;12.286;2023-05-07T02:26:22;4.00;;;1.33;;
31730;SDS011;18310;55.586;12.286;2023-05-07T02:29:25;4.43;;;1.80;;
31730;SDS011;18310;55.586;12.286;2023-05-07T02:32:28;6.80;;;1.35;;
31730;SDS011;18310;55.586;12.286;2023-05-07T02:35:31;6.15;;;1.55;;
31730;SDS011;18310;55.586;12.286;2023-05-07T02:38:34;6.70;;;1.48;;
31730;SDS011;18310;55.586;12.286;2023-05-07T02:41:40;3.05;;;1.25;;
31730;SDS011;18310;55.586;12.286;2023-05-07T02:44:43;4.90;;;1.85;;
31730;SDS011;18310;55.586;12.286;2023-05-07T02:47:46;7.53;;;1.65;;
31730;SDS011;18310;55.586;12.286;2023-05-07T02:50:49;8.48;;;2.42;;
31730;SDS011;18310;55.586;12.286;2023-05-07T02:53:52;5.22;;;1.50;;
31730;SDS011;18310;55.586;12.286;2023-05-07T02:56:57;3.75;;;1.50;;
31730;SDS011;18310;55.586;12.286;2023-05-07T03:00:09;6.57;;;1.48;;
31730;SDS011;18310;55.586;12.286;2023-05-07T03:03:13;6.82;;;1.77;;
31730;SDS011;18310;55.586;12.286;2023-05-07T03:06:17;9.10;;;1.50;;
31730;SDS011;18310;55.586;12.286;2023-05-07T03:09:20;4.97;;;1.80;;
31730;SDS011;18310;55.586;12.286;2023-05-07T03:12:24;3.20;;;1.30;;
31730;SDS011;18310;55.586;12.286;2023-05-07T03:15:28;7.95;;;1.75;;
31730;SDS011;18310;55.586;12.286;2023-05-07T03:18:31;8.07;;;1.43;;
31730;SDS011;18310;55.586;12.286;2023-05-07T03:21:34;4.55;;;1.27;;
31730;SDS011;18310;55.586;12.286;2023-05-07T03:24:37;3.85;;;1.40;;
31730;SDS011;18310;55.586;12.286;2023-05-07T03:27:41;6.00;;;1.50;;
31730;SDS011;18310;55.586;12.286;2023-05-07T03:30:45;4.20;;;1.65;;
31730;SDS011;18310;55.586;12.286;2023-05-07T03:33:51;5.63;;;1.97;;
31730;SDS011;18310;55.586;12.286;2023-05-07T03:36:55;5.20;;;1.85;;
31730;SDS011;18310;55.586;12.286;2023-05-07T03:39:58;8.05;;;1.50;;
31730;SDS011;18310;55.586;12.286;2023-05-07T03:43:02;8.50;;;1.70;;
31730;SDS011;18310;55.586;12.286;2023-05-07T03:46:06;4.07;;;1.40;;
31730;SDS011;18310;55.586;12.286;2023-05-07T03:49:09;5.35;;;1.52;;
31730;SDS011;18310;55.586;12.286;2023-05-07T03:52:12;4.90;;;2.15;;
31730;SDS011;18310;55.586;12.286;2023-05-07T03:55:15;6.05;;;1.80;;
31730;SDS011;18310;55.586;12.286;2023-05-07T03:58:20;5.30;;;1.42;;
31730;SDS011;18310;55.586;12.286;2023-05-07T04:01:23;3.70;;;1.65;;
31730;SDS011;18310;55.586;12.286;2023-05-07T04:04:26;4.53;;;1.60;;
31730;SDS011;18310;55.586;12.286;2023-05-07T04:07:31;3.65;;;1.40;;
31730;SDS011;18310;55.586;12.286;2023-05-07T04:10:34;3.67;;;1.60;;
31730;SDS011;18310;55.586;12.286;2023-05-07T04:13:39;5.32;;;1.35;;
31730;SDS011;18310;55.586;12.286;2023-05-07T04:16:42;4.63;;;1.48;;
31730;SDS011;18310;55.586;12.286;2023-05-07T04:19:46;2.88;;;1.45;;
31730;SDS011;18310;55.586;12.286;2023-05-07T04:22:49;4.70;;;1.50;;
31730;SDS011;18310;55.586;12.286;2023-05-07T04:25:52;5.57;;;1.55;;
31730;SDS011;18310;55.586;12.286;2023-05-07T04:28:57;5.07;;;1.40;;
31730;SDS011;18310;55.586;12.286;2023-05-07T04:32:00;3.28;;;1.30;;
31730;SDS011;18310;55.586;12.286;2023-05-07T04:35:04;3.77;;;1.40;;
31730;SDS011;18310;55.586;12.286;2023-05-07T04:41:12;2.53;;;0.90;;
31730;SDS011;18310;55.586;12.286;2023-05-07T04:44:16;8.35;;;1.63;;
31730;SDS011;18310;55.586;12.286;2023-05-07T04:47:19;3.30;;;1.40;;
31730;SDS011;18310;55.586;12.286;2023-05-07T04:50:23;6.30;;;1.40;;
31730;SDS011;18310;55.586;12.286;2023-05-07T04:53:26;4.10;;;1.40;;
31730;SDS011;18310;55.586;12.286;2023-05-07T04:56:29;3.90;;;1.23;;
31730;SDS011;18310;55.586;12.286;2023-05-07T04:59:34;3.70;;;1.30;;
31730;SDS011;18310;55.586;12.286;2023-05-07T05:02:37;4.32;;;1.48;;
31730;SDS011;18310;55.586;12.286;2023-05-07T05:05:40;3.28;;;1.70;;
31730;SDS011;18310;55.586;12.286;2023-05-07T05:08:43;6.97;;;1.73;;
31730;SDS011;18310;55.586;12.286;2023-05-07T05:11:46;4.38;;;1.42;;
31730;SDS011;18310;55.586;12.286;2023-05-07T05:14:51;2.53;;;1.43;;
31730;SDS011;18310;55.586;12.286;2023-05-07T05:17:54;5.05;;;1.30;;
31730;SDS011;18310;55.586;12.286;2023-05-07T05:20:57;3.55;;;1.58;;
31730;SDS011;18310;55.586;12.286;2023-05-07T05:24:00;6.55;;;1.52;;
31730;SDS011;18310;55.586;12.286;2023-05-07T05:27:03;4.03;;;1.25;;
31730;SDS011;18310;55.586;12.286;2023-05-07T05:30:30;3.97;;;1.63;;
31730;SDS011;18310;55.586;12.286;2023-05-07T05:33:33;3.60;;;1.35;;
31730;SDS011;18310;55.586;12.286;2023-05-07T05:36:36;3.85;;;1.33;;
31730;SDS011;18310;55.586;12.286;2023-05-07T05:39:39;4.90;;;1.30;;
31730;SDS011;18310;55.586;12.286;2023-05-07T05:42:43;3.28;;;1.27;;
31730;SDS011;18310;55.586;12.286;2023-05-07T05:45:47;3.40;;;1.57;;
31730;SDS011;18310;55.586;12.286;2023-05-07T05:48:50;5.15;;;1.60;;
31730;SDS011;18310;55.586;12.286;2023-05-07T05:51:53;3.33;;;1.20;;
31730;SDS011;18310;55.586;12.286;2023-05-07T05:54:57;4.43;;;1.38;;
31730;SDS011;18310;55.586;12.286;2023-05-07T05:58:00;3.72;;;1.25;;
31730;SDS011;18310;55.586;12.286;2023-05-07T06:01:05;5.80;;;1.60;;
31730;SDS011;18310;55.586;12.286;2023-05-07T06:04:08;4.75;;;1.25;;
31730;SDS011;18310;55.586;12.286;2023-05-07T06:07:11;6.63;;;1.30;;
31730;SDS011;18310;55.586;12.286;2023-05-07T06:10:14;4.53;;;1.53;;
31730;SDS011;18310;55.586;12.286;2023-05-07T06:13:17;2.97;;;1.40;;
31730;SDS011;18310;55.586;12.286;2023-05-07T06:16:22;3.97;;;1.30;;
31730;SDS011;18310;55.586;12.286;2023-05-07T06:19:25;5.20;;;1.35;;
31730;SDS011;18310;55.586;12.286;2023-05-07T06:25:32;5.22;;;1.50;;
31730;SDS011;18310;55.586;12.286;2023-05-07T06:28:36;7.22;;;1.77;;
31730;SDS011;18310;55.586;12.286;2023-05-07T06:31:40;3.75;;;1.25;;
31730;SDS011;18310;55.586;12.286;2023-05-07T06:34:44;3.53;;;1.40;;
31730;SDS011;18310;55.586;12.286;2023-05-07T06:37:47;4.40;;;1.43;;
31730;SDS011;18310;55.586;12.286;2023-05-07T06:40:50;4.68;;;1.55;;
31730;SDS011;18310;55.586;12.286;2023-05-07T06:43:55;3.88;;;1.23;;
31730;SDS011;18310;55.586;12.286;2023-05-07T06:47:00;4.97;;;1.27;;
31730;SDS011;18310;55.586;12.286;2023-05-07T06:50:03;4.25;;;1.42;;
31730;SDS011;18310;55.586;12.286;2023-05-07T06:53:07;3.85;;;1.42;;
31730;SDS011;18310;55.586;12.286;2023-05-07T06:56:10;8.63;;;1.70;;
31730;SDS011;18310;55.586;12.286;2023-05-07T06:59:13;3.72;;;1.40;;
31730;SDS011;18310;55.586;12.286;2023-05-07T07:02:18;7.22;;;1.00;;
31730;SDS011;18310;55.586;12.286;2023-05-07T07:05:21;6.72;;;2.00;;
31730;SDS011;18310;55.586;12.286;2023-05-07T07:08:24;3.97;;;1.33;;
31730;SDS011;18310;55.586;12.286;2023-05-07T07:11:27;5.93;;;1.55;;
31730;SDS011;18310;55.586;12.286;2023-05-07T07:14:30;5.15;;;1.52;;
31730;SDS011;18310;55.586;12.286;2023-05-07T07:17:35;6.25;;;1.80;;
31730;SDS011;18310;55.586;12.286;2023-05-07T07:20:38;3.60;;;1.33;;
31730;SDS011;18310;55.586;12.286;2023-05-07T07:23:41;13.32;;;1.60;;
31730;SDS011;18310;55.586;12.286;2023-05-07T07:26:45;4.27;;;1.43;;
31730;SDS011;18310;55.586;12.286;2023-05-07T07:29:48;8.37;;;1.50;;
31730;SDS011;18310;55.586;12.286;2023-05-07T07:32:52;5.82;;;1.50;;
31730;SDS011;18310;55.586;12.286;2023-05-07T07:35:56;3.92;;;1.40;;
31730;SDS011;18310;55.586;12.286;2023-05-07T07:38:59;3.75;;;1.38;;
31730;SDS011;18310;55.586;12.286;2023-05-07T07:42:02;11.00;;;1.75;;
31730;SDS011;18310;55.586;12.286;2023-05-07T07:45:06;11.83;;;1.93;;
31730;SDS011;18310;55.586;12.286;2023-05-07T07:48:11;5.43;;;1.90;;
31730;SDS011;18310;55.586;12.286;2023-05-07T07:51:14;5.15;;;1.50;;
31730;SDS011;18310;55.586;12.286;2023-05-07T07:54:18;4.60;;;2.00;;
31730;SDS011;18310;55.586;12.286;2023-05-07T07:57:21;9.75;;;2.10;;
31730;SDS011;18310;55.586;12.286;2023-05-07T08:00:24;7.05;;;1.63;;
31730;SDS011;18310;55.586;12.286;2023-05-07T08:03:28;3.17;;;1.60;;
31730;SDS011;18310;55.586;12.286;2023-05-07T08:06:34;2.85;;;1.40;;
31730;SDS011;18310;55.586;12.286;2023-05-07T08:09:37;4.22;;;1.27;;
31730;SDS011;18310;55.586;12.286;2023-05-07T08:12:41;3.88;;;1.75;;
31730;SDS011;18310;55.586;12.286;2023-05-07T08:15:44;4.05;;;1.85;;
31730;SDS011;18310;55.586;12.286;2023-05-07T08:18:48;3.63;;;1.63;;
31730;SDS011;18310;55.586;12.286;2023-05-07T08:21:52;4.47;;;1.77;;
31730;SDS011;18310;55.586;12.286;2023-05-07T08:25:15;2.88;;;1.40;;
31730;SDS011;18310;55.586;12.286;2023-05-07T08:28:18;6.97;;;2.08;;
31730;SDS011;18310;55.586;12.286;2023-05-07T08:32:27;4.80;;;1.45;;
31730;SDS011;18310;55.586;12.286;2023-05-07T08:35:30;4.32;;;1.83;;
31730;SDS011;18310;55.586;12.286;2023-05-07T08:38:33;6.53;;;1.85;;
31730;SDS011;18310;55.586;12.286;2023-05-07T08:41:36;3.60;;;1.77;;
31730;SDS011;18310;55.586;12.286;2023-05-07T08:44:39;4.17;;;1.60;;
31730;SDS011;18310;55.586;12.286;2023-05-07T08:47:46;3.60;;;1.67;;
31730;SDS011;18310;55.586;12.286;2023-05-07T08:50:54;8.88;;;2.28;;
31730;SDS011;18310;55.586;12.286;2023-05-07T08:53:57;3.73;;;1.73;;
31730;SDS011;18310;55.586;12.286;2023-05-07T08:57:02;9.38;;;2.00;;
31730;SDS011;18310;55.586;12.286;2023-05-07T09:00:05;3.47;;;1.83;;
31730;SDS011;18310;55.586;12.286;2023-05-07T09:03:10;7.40;;;2.35;;
31730;SDS011;18310;55.586;12.286;2023-05-07T09:06:14;5.72;;;1.75;;
31730;SDS011;18310;55.586;12.286;2023-05-07T09:09:18;6.10;;;1.63;;
31730;SDS011;18310;55.586;12.286;2023-05-07T09:12:21;4.85;;;2.10;;
31730;SDS011;18310;55.586;12.286;2023-05-07T09:15:47;4.68;;;2.08;;
31730;SDS011;18310;55.586;12.286;2023-05-07T09:18:51;8.25;;;1.95;;
31730;SDS011;18310;55.586;12.286;2023-05-07T09:21:57;3.85;;;2.05;;
31730;SDS011;18310;55.586;12.286;2023-05-07T09:25:02;3.65;;;2.20;;
31730;SDS011;18310;55.586;12.286;2023-05-07T09:28:06;8.27;;;2.85;;
31730;SDS011;18310;55.586;12.286;2023-05-07T09:31:13;6.85;;;2.60;;
31730;SDS011;18310;55.586;12.286;2023-05-07T09:34:16;5.85;;;2.58;;
31730;SDS011;18310;55.586;12.286;2023-05-07T09:37:19;4.32;;;2.20;;
31730;SDS011;18310;55.586;12.286;2023-05-07T09:40:22;5.38;;;2.50;;
31730;SDS011;18310;55.586;12.286;2023-05-07T09:43:26;6.85;;;2.47;;
31730;SDS011;18310;55.586;12.286;2023-05-07T09:46:36;5.82;;;2.38;;
31730;SDS011;18310;55.586;12.286;2023-05-07T09:49:42;5.32;;;2.45;;
31730;SDS011;18310;55.586;12.286;2023-05-07T09:52:49;11.95;;;2.60;;
31730;SDS011;18310;55.586;12.286;2023-05-07T09:55:52;7.30;;;2.70;;
31730;SDS011;18310;55.586;12.286;2023-05-07T09:58:56;6.38;;;2.70;;
31730;SDS011;18310;55.586;12.286;2023-05-07T10:02:03;5.25;;;2.42;;
31730;SDS011;18310;55.586;12.286;2023-05-07T10:05:08;6.35;;;2.55;;
31730;SDS011;18310;55.586;12.286;2023-05-07T10:08:12;6.40;;;2.72;;
31730;SDS011;18310;55.586;12.286;2023-05-07T10:11:18;8.50;;;2.88;;
31730;SDS011;18310;55.586;12.286;2023-05-07T10:14:22;4.22;;;2.05;;
31730;SDS011;18310;55.586;12.286;2023-05-07T10:17:27;3.53;;;2.13;;
31730;SDS011;18310;55.586;12.286;2023-05-07T10:20:30;5.50;;;2.90;;
31730;SDS011;18310;55.586;12.286;2023-05-07T10:23:34;7.55;;;2.67;;
31730;SDS011;18310;55.586;12.286;2023-05-07T10:26:38;7.57;;;3.15;;
31730;SDS011;18310;55.586;12.286;2023-05-07T10:29:45;13.07;;;2.90;;
31730;SDS011;18310;55.586;12.286;2023-05-07T10:32:55;8.80;;;2.92;;
31730;SDS011;18310;55.586;12.286;2023-05-07T10:36:07;6.63;;;3.20;;
31730;SDS011;18310;55.586;12.286;2023-05-07T10:39:10;5.70;;;2.65;;
31730;SDS011;18310;55.586;12.286;2023-05-07T10:42:14;9.90;;;3.53;;
31730;SDS011;18310;55.586;12.286;2023-05-07T10:45:18;8.00;;;3.50;;
31730;SDS011;18310;55.586;12.286;2023-05-07T10:48:23;15.25;;;3.47;;
31730;SDS011;18310;55.586;12.286;2023-05-07T10:51:31;7.00;;;3.15;;
31730;SDS011;18310;55.586;12.286;2023-05-07T10:54:35;8.73;;;3.65;;
31730;SDS011;18310;55.586;12.286;2023-05-07T10:57:38;12.90;;;3.97;;
31730;SDS011;18310;55.586;12.286;2023-05-07T11:00:42;9.43;;;3.80;;
31730;SDS011;18310;55.586;12.286;2023-05-07T11:10:49;9.38;;;3.78;;
31730;SDS011;18310;55.586;12.286;2023-05-07T11:13:53;7.43;;;3.47;;
31730;SDS011;18310;55.586;12.286;2023-05-07T11:17:01;13.47;;;3.57;;
31730;SDS011;18310;55.586;12.286;2023-05-07T11:20:05;9.57;;;3.78;;
31730;SDS011;18310;55.586;12.286;2023-05-07T11:23:12;12.15;;;3.60;;
31730;SDS011;18310;55.586;12.286;2023-05-07T11:26:52;7.28;;;3.75;;
31730;SDS011;18310;55.586;12.286;2023-05-07T11:29:56;9.45;;;3.60;;
31730;SDS011;18310;55.586;12.286;2023-05-07T11:32:59;10.80;;;3.33;;
31730;SDS011;18310;55.586;12.286;2023-05-07T11:36:03;10.05;;;4.03;;
31730;SDS011;18310;55.586;12.286;2023-05-07T11:42:30;6.47;;;3.33;;
31730;SDS011;18310;55.586;12.286;2023-05-07T11:45:34;6.20;;;3.53;;
31730;SDS011;18310;55.586;12.286;2023-05-07T11:48:37;7.67;;;4.17;;
31730;SDS011;18310;55.586;12.286;2023-05-07T11:51:41;8.20;;;3.97;;
31730;SDS011;18310;55.586;12.286;2023-05-07T11:54:49;6.67;;;3.80;;
31730;SDS011;18310;55.586;12.286;2023-05-07T11:57:53;7.72;;;3.70;;
31730;SDS011;18310;55.586;12.286;2023-05-07T12:00:56;6.72;;;4.38;;
31730;SDS011;18310;55.586;12.286;2023-05-07T12:03:59;9.05;;;4.55;;
31730;SDS011;18310;55.586;12.286;2023-05-07T12:07:10;10.30;;;4.20;;
31730;SDS011;18310;55.586;12.286;2023-05-07T12:10:16;12.23;;;4.13;;
31730;SDS011;18310;55.586;12.286;2023-05-07T12:13:21;5.95;;;3.42;;
31730;SDS011;18310;55.586;12.286;2023-05-07T12:16:26;11.90;;;4.30;;
31730;SDS011;18310;55.586;12.286;2023-05-07T12:19:30;5.88;;;3.33;;
31730;SDS011;18310;55.586;12.286;2023-05-07T12:22:56;8.18;;;3.58;;
31730;SDS011;18310;55.586;12.286;2023-05-07T12:26:00;9.48;;;3.50;;
31730;SDS011;18310;55.586;12.286;2023-05-07T12:29:07;15.52;;;4.05;;
31730;SDS011;18310;55.586;12.286;2023-05-07T12:32:12;7.63;;;3.75;;
31730;SDS011;18310;55.586;12.286;2023-05-07T12:35:17;9.50;;;4.03;;
31730;SDS011;18310;55.586;12.286;2023-05-07T12:38:21;6.55;;;3.30;;
31730;SDS011;18310;55.586;12.286;2023-05-07T12:41:25;5.47;;;3.60;;
31730;SDS011;18310;55.586;12.286;2023-05-07T12:44:31;7.40;;;3.53;;
31730;SDS011;18310;55.586;12.286;2023-05-07T12:50:38;9.95;;;3.95;;
31730;SDS011;18310;55.586;12.286;2023-05-07T12:53:43;8.47;;;3.20;;
31730;SDS011;18310;55.586;12.286;2023-05-07T12:56:46;10.75;;;3.50;;
31730;SDS011;18310;55.586;12.286;2023-05-07T12:59:49;5.57;;;2.53;;
31730;SDS011;18310;55.586;12.286;2023-05-07T13:02:53;5.63;;;3.17;;
31730;SDS011;18310;55.586;12.286;2023-05-07T13:05:57;5.72;;;2.60;;
31730;SDS011;18310;55.586;12.286;2023-05-07T13:09:03;4.07;;;2.47;;
31730;SDS011;18310;55.586;12.286;2023-05-07T13:12:07;7.75;;;3.10;;
31730;SDS011;18310;55.586;12.286;2023-05-07T13:15:10;6.50;;;3.20;;
31730;SDS011;18310;55.586;12.286;2023-05-07T13:18:14;6.73;;;3.23;;
31730;SDS011;18310;55.586;12.286;2023-05-07T13:21:17;5.30;;;2.70;;
31730;SDS011;18310;55.586;12.286;2023-05-07T13:24:21;5.00;;;2.60;;
31730;SDS011;18310;55.586;12.286;2023-05-07T13:27:25;7.18;;;2.80;;
31730;SDS011;18310;55.586;12.286;2023-05-07T13:30:28;8.20;;;2.78;;
31730;SDS011;18310;55.586;12.286;2023-05-07T13:33:31;5.07;;;2.87;;
31730;SDS011;18310;55.586;12.286;2023-05-07T13:36:34;8.10;;;3.10;;
31730;SDS011;18310;55.586;12.286;2023-05-07T13:39:40;5.07;;;2.58;;
31730;SDS011;18310;55.586;12.286;2023-05-07T13:42:43;8.50;;;3.05;;
31730;SDS011;18310;55.586;12.286;2023-05-07T13:45:46;7.47;;;2.60;;
31730;SDS011;18310;55.586;12.286;2023-05-07T13:48:49;5.65;;;2.83;;
31730;SDS011;18310;55.586;12.286;2023-05-07T13:51:53;8.07;;;3.03;;
31730;SDS011;18310;55.586;12.286;2023-05-07T13:54:57;6.00;;;2.57;;
31730;SDS011;18310;55.586;12.286;2023-05-07T13:58:01;7.55;;;3.17;;
31730;SDS011;18310;55.586;12.286;2023-05-07T14:01:08;5.50;;;2.88;;
31730;SDS011;18310;55.586;12.286;2023-05-07T14:04:11;8.33;;;2.90;;
31730;SDS011;18310;55.586;12.286;2023-05-07T14:07:14;4.95;;;2.85;;
31730;SDS011;18310;55.586;12.286;2023-05-07T14:10:19;8.43;;;3.45;;
31730;SDS011;18310;55.586;12.286;2023-05-07T14:13:22;8.73;;;3.63;;
31730;SDS011;18310;55.586;12.286;2023-05-07T14:16:25;8.30;;;3.60;;
31730;SDS011;18310;55.586;12.286;2023-05-07T14:19:28;7.22;;;3.60;;
31730;SDS011;18310;55.586;12.286;2023-05-07T14:22:34;6.75;;;3.88;;
31730;SDS011;18310;55.586;12.286;2023-05-07T14:25:39;7.88;;;3.45;;
31730;SDS011;18310;55.586;12.286;2023-05-07T14:28:42;8.68;;;3.35;;
31730;SDS011;18310;55.586;12.286;2023-05-07T14:31:48;7.88;;;3.50;;
31730;SDS011;18310;55.586;12.286;2023-05-07T14:34:51;10.82;;;3.50;;
31730;SDS011;18310;55.586;12.286;2023-05-07T14:37:54;5.85;;;2.78;;
31730;SDS011;18310;55.586;12.286;2023-05-07T14:40:58;5.65;;;3.00;;
31730;SDS011;18310;55.586;12.286;2023-05-07T14:44:02;6.13;;;2.85;;
31730;SDS011;18310;55.586;12.286;2023-05-07T14:47:06;5.25;;;2.97;;
31730;SDS011;18310;55.586;12.286;2023-05-07T14:50:09;13.32;;;3.28;;
31730;SDS011;18310;55.586;12.286;2023-05-07T14:53:12;8.77;;;2.97;;
31730;SDS011;18310;55.586;12.286;2023-05-07T14:56:16;5.63;;;3.03;;
31730;SDS011;18310;55.586;12.286;2023-05-07T14:59:20;7.13;;;3.67;;
31730;SDS011;18310;55.586;12.286;2023-05-07T15:02:23;6.27;;;3.07;;
31730;SDS011;18310;55.586;12.286;2023-05-07T15:05:27;8.27;;;2.85;;
31730;SDS011;18310;55.586;12.286;2023-05-07T15:08:31;7.30;;;2.70;;
31730;SDS011;18310;55.586;12.286;2023-05-07T15:11:35;5.38;;;2.33;;
31730;SDS011;18310;55.586;12.286;2023-05-07T15:14:39;6.68;;;2.63;;
31730;SDS011;18310;55.586;12.286;2023-05-07T15:17:42;5.80;;;2.93;;
31730;SDS011;18310;55.586;12.286;2023-05-07T15:20:45;3.50;;;2.37;;
31730;SDS011;18310;55.586;12.286;2023-05-07T15:23:48;10.87;;;3.00;;
31730;SDS011;18310;55.586;12.286;2023-05-07T15:26:53;5.70;;;2.38;;
31730;SDS011;18310;55.586;12.286;2023-05-07T15:29:56;6.90;;;2.67;;
31730;SDS011;18310;55.586;12.286;2023-05-07T15:33:00;9.40;;;3.03;;
31730;SDS011;18310;55.586;12.286;2023-05-07T15:36:04;5.70;;;2.95;;
31730;SDS011;18310;55.586;12.286;2023-05-07T15:39:07;5.28;;;2.78;;
31730;SDS011;18310;55.586;12.286;2023-05-07T15:42:13;7.55;;;3.22;;
31730;SDS011;18310;55.586;12.286;2023-05-07T15:48:18;7.90;;;2.40;;
31730;SDS011;18310;55.586;12.286;2023-05-07T15:51:22;7.75;;;2.63;;
31730;SDS011;18310;55.586;12.286;2023-05-07T15:54:25;5.20;;;2.17;;
31730;SDS011;18310;55.586;12.286;2023-05-07T15:57:30;5.37;;;2.67;;
31730;SDS011;18310;55.586;12.286;2023-05-07T16:00:34;4.32;;;2.70;;
31730;SDS011;18310;55.586;12.286;2023-05-07T16:03:37;10.55;;;3.17;;
31730;SDS011;18310;55.586;12.286;2023-05-07T16:09:48;6.85;;;2.90;;
31730;SDS011;18310;55.586;12.286;2023-05-07T16:12:52;6.65;;;2.38;;
31730;SDS011;18310;55.586;12.286;2023-05-07T16:15:56;6.53;;;2.55;;
31730;SDS011;18310;55.586;12.286;2023-05-07T16:18:59;4.88;;;2.63;;
31730;SDS011;18310;55.586;12.286;2023-05-07T16:22:03;6.65;;;2.60;;
31730;SDS011;18310;55.586;12.286;2023-05-07T16:25:06;6.45;;;2.55;;
31730;SDS011;18310;55.586;12.286;2023-05-07T16:31:15;6.90;;;2.38;;
31730;SDS011;18310;55.586;12.286;2023-05-07T16:34:19;7.78;;;2.33;;
31730;SDS011;18310;55.586;12.286;2023-05-07T16:40:26;6.35;;;2.13;;
31730;SDS011;18310;55.586;12.286;2023-05-07T16:43:31;4.93;;;2.20;;
31730;SDS011;18310;55.586;12.286;2023-05-07T16:46:34;6.32;;;2.47;;
31730;SDS011;18310;55.586;12.286;2023-05-07T16:49:37;6.80;;;2.45;;
31730;SDS011;18310;55.586;12.286;2023-05-07T16:52:40;4.57;;;2.50;;
31730;SDS011;18310;55.586;12.286;2023-05-07T16:55:44;5.43;;;2.38;;
31730;SDS011;18310;55.586;12.286;2023-05-07T16:58:49;5.63;;;2.17;;
31730;SDS011;18310;55.586;12.286;2023-05-07T17:01:52;4.60;;;2.28;;
31730;SDS011;18310;55.586;12.286;2023-05-07T17:04:57;5.65;;;2.13;;
31730;SDS011;18310;55.586;12.286;2023-05-07T17:08:00;4.55;;;2.25;;
31730;SDS011;18310;55.586;12.286;2023-05-07T17:11:03;4.80;;;2.23;;
31730;SDS011;18310;55.586;12.286;2023-05-07T17:14:08;3.42;;;2.10;;
31730;SDS011;18310;55.586;12.286;2023-05-07T17:17:12;5.30;;;2.40;;
31730;SDS011;18310;55.586;12.286;2023-05-07T17:20:15;7.35;;;2.40;;
31730;SDS011;18310;55.586;12.286;2023-05-07T17:23:18;9.53;;;2.43;;
31730;SDS011;18310;55.586;12.286;2023-05-07T17:26:21;7.40;;;2.47;;
31730;SDS011;18310;55.586;12.286;2023-05-07T17:29:26;6.00;;;2.10;;
31730;SDS011;18310;55.586;12.286;2023-05-07T17:32:29;4.50;;;1.88;;
31730;SDS011;18310;55.586;12.286;2023-05-07T17:35:33;5.63;;;2.60;;
31730;SDS011;18310;55.586;12.286;2023-05-07T17:38:36;9.15;;;2.63;;
31730;SDS011;18310;55.586;12.286;2023-05-07T17:41:39;3.63;;;1.93;;
31730;SDS011;18310;55.586;12.286;2023-05-07T17:44:44;7.65;;;1.98;;
31730;SDS011;18310;55.586;12.286;2023-05-07T17:47:47;4.97;;;1.92;;
31730;SDS011;18310;55.586;12.286;2023-05-07T17:50:50;3.42;;;2.00;;
31730;SDS011;18310;55.586;12.286;2023-05-07T17:53:53;5.18;;;2.25;;
31730;SDS011;18310;55.586;12.286;2023-05-07T17:56:57;11.47;;;2.40;;
31730;SDS011;18310;55.586;12.286;2023-05-07T18:00:02;6.13;;;1.63;;
31730;SDS011;18310;55.586;12.286;2023-05-07T18:03:07;5.25;;;1.90;;
31730;SDS011;18310;55.586;12.286;2023-05-07T18:06:11;5.55;;;2.10;;
31730;SDS011;18310;55.586;12.286;2023-05-07T18:09:19;5.70;;;2.03;;
31730;SDS011;18310;55.586;12.286;2023-05-07T18:12:22;5.05;;;1.90;;
31730;SDS011;18310;55.586;12.286;2023-05-07T18:15:29;5.97;;;2.17;;
31730;SDS011;18310;55.586;12.286;2023-05-07T18:18:33;4.93;;;2.47;;
31730;SDS011;18310;55.586;12.286;2023-05-07T18:21:36;4.43;;;1.90;;
31730;SDS011;18310;55.586;12.286;2023-05-07T18:24:39;4.18;;;1.95;;
31730;SDS011;18310;55.586;12.286;2023-05-07T18:27:42;6.68;;;2.00;;
31730;SDS011;18310;55.586;12.286;2023-05-07T18:30:46;7.28;;;2.15;;
31730;SDS011;18310;55.586;12.286;2023-05-07T18:33:50;4.28;;;2.00;;
31730;SDS011;18310;55.586;12.286;2023-05-07T18:36:54;9.30;;;2.00;;
31730;SDS011;18310;55.586;12.286;2023-05-07T18:39:58;3.33;;;1.70;;
31730;SDS011;18310;55.586;12.286;2023-05-07T18:43:04;6.65;;;2.45;;
31730;SDS011;18310;55.586;12.286;2023-05-07T18:46:09;6.95;;;2.15;;
31730;SDS011;18310;55.586;12.286;2023-05-07T18:49:12;4.10;;;1.92;;
31730;SDS011;18310;55.586;12.286;2023-05-07T18:52:15;4.45;;;1.90;;